Cincinnati, Ohio
Traffic Map
Current Weather Conditions
Cincinnati, Ohio
Overcast Light Rain
Overcast
54°
Feels Like: 54°
Wind Chill: 54° Ceiling: 5500
Heat Index: 54° Visibility: 10mi
Dew Point: 49° Wind: 9mph
Humidity: 83% Direction: 230° (SW)
Pressure: 29.7in Gusts: 0mph
Raw Report DataKLUK 041653Z 23008KT 10SM -RA FEW024 BKN055 OVC070 12/09 A2970 RMK AO2 SLP058 P0001 T01220094
Traffic Incident Summary
Active as of:
Severity:
Category:
InformationThere was an issue retrieving the traffic information for this location. Please try a different location or try again shortly.
Advertisements
Track Severe Weather on mobile